Impacts METAR Board
IDs:

KHOU - Houston/Hobby Arpt, TX, US

Updated at: 0300 UTC 21 Jun 2021
Potential Impact None Slight Moderate High
Time 20/15Z 20/16Z 20/17Z 20/18Z 20/19Z 20/20Z 20/21Z 20/22Z 20/23Z 21/00Z 21/01Z 21/02Z 21/03Z
Temp88 90 89 91 92 89 90 90 89 88 87 86 84
Dewpt77 75 71 75 74 74 75 76 77 75 74 76 74
Altim29.87 29.85 29.86 29.84 29.83 29.82 29.81 29.80 29.80 29.80 29.80 29.82 29.83
VIS10 10 10 10 10 10 10 10 10 10 10 10 10
CIG250 250 35 140 85 85 200 200 26 150 250 250 250
CoverBKNBKNBKNBKNBKNBKNOVCBKNBKNBKNBKNBKNBKN
FltCatVFRVFRVFRVFRVFRVFRVFRVFRMVFRVFRVFRVFRVFR
WX----TS--------------------
WDir210200200190220170190180190170180160160
WSpd9 7 15 12 10 9 9 11 15 13 10 13 12
WGst-- -- -- -- -- -- -- -- 19 19 -- -- --
R04/22
XWnd -2 -3 -6 -7 -1 -7 -5 -8 -8 -11 -7 -12 -11
XGst -- -- -- -- -- -- -- -- -11 -15 -- -- --
HWnd -9 -6 -14 -10 -10 -5 -7 -8 -12 -8 -7 -6 -5
HGst -- -- -- -- -- -- -- -- -16 -11 -- -- --
R12/30
XWnd -9 -6 -14 -10 -10 -5 -7 -8 -12 -8 -7 -6 -5
XGst -- -- -- -- -- -- -- -- -16 -11 -- -- --
HWnd 2 3 6 7 1 7 5 8 8 11 7 12 11
HGst -- -- -- -- -- -- -- -- 11 15 -- -- --
R17/35
XWnd -5 -3 -5 -2 -7 1 -2 -0 -3 2 -0 4 4
XGst -- -- -- -- -- -- -- -- -4 3 -- -- --
HWnd 8 7 14 12 8 9 9 11 15 13 10 12 11
HGst -- -- -- -- -- -- -- -- 19 19 -- -- --
Raw hourly METARs
KHOU 201453Z 21009KT 10SM SCT015 SCT030 BKN250 31/25 A2987 RMK AO2 SLP118 T03110250 50005
KHOU 201553Z 20007KT 10SM FEW015 SCT035 BKN250 32/24 A2985 RMK AO2 SLP113 T03220239
KHOU 201653Z 20015KT 10SM TS BKN035CB BKN250 32/22 A2986 RMK AO2 TSB52 SLP115 OCNL LTGIC VC E TS VC E MOV NE T03170217
KHOU 201753Z 19012KT 10SM FEW025 SCT038 BKN140 BKN250 33/24 A2984 RMK AO2 TSE21 SLP108 TS DSPTD T03280239 10333 20278 58010
KHOU 201853Z 22010KT 10SM SCT035 BKN085 BKN250 33/23 A2983 RMK AO2 LTG DSNT SE AND S SLP104 T03330233
KHOU 201953Z 17009KT 10SM SCT035 BKN085 BKN160 BKN250 32/23 A2982 RMK AO2 PK WND 21027/1859 LTG DSNT NW RAB05E20 SLP102 P0000 T03170233
KHOU 202053Z 19009KT 10SM FEW028 SCT120 OVC200 32/24 A2981 RMK AO2 SLP099 SHRA DSNT N-NE 60000 T03220239 56008
KHOU 202153Z 18011KT 10SM FEW012 SCT025 SCT130 BKN200 32/24 A2980 RMK AO2 SLP095 SHRA DSNT E-S-SW T03220244
KHOU 202253Z 19015G19KT 10SM FEW010 BKN026 BKN042TCU BKN130 BKN250 32/25 A2980 RMK AO2 RAB35E48 SLP094 TCU OHD AND W VCSH NE-E SHRA DSNT S-SW P0000 T03170250
KHOU 202353Z 17013G19KT 10SM FEW012 SCT028 BKN150 BKN250 31/24 A2980 RMK AO2 SLP095 SHRA DSNT NW AND NE 60000 T03110239 10339 20300 55004
KHOU 210053Z 18010KT 10SM FEW028 SCT150 BKN250 31/23 A2980 RMK AO2 SLP095 CB DSNT E-SE MOV NE T03060233
KHOU 210153Z 16013KT 10SM SCT023 SCT150 BKN250 30/24 A2982 RMK AO2 SLP102 SHRA DSNT SE T03000244
KHOU 210253Z 16012KT 10SM FEW025 SCT150 BKN250 29/23 A2983 RMK AO2 SLP105 SHRA DSNT E-SE T02890233 53010



Page loaded:  03:43 UTC  |   08:43 PM Pacific  |   09:43 PM Mountain  |   10:43 PM Central  |   11:43 PM Eastern

 

ADVISORIES

FORECASTS

FORECASTS

OBSERVATIONS

USER TOOLS

ABOUT US